createdAt,value
2018-03-17T00:01:26.436Z,-2.30
2018-03-17T00:03:54.643Z,-2.30
2018-03-17T00:06:22.774Z,-2.40
2018-03-17T00:08:50.954Z,-2.40
2018-03-17T00:11:19.122Z,-2.30
2018-03-17T00:13:47.282Z,-2.40
2018-03-17T00:16:15.424Z,-2.40
2018-03-17T00:18:43.581Z,-2.30
2018-03-17T00:21:11.712Z,-2.30
2018-03-17T00:23:39.895Z,-2.50
2018-03-17T00:26:08.018Z,-2.40
2018-03-17T00:28:36.163Z,-2.10
2018-03-17T00:31:04.326Z,-2.30
2018-03-17T00:33:32.453Z,-2.40
2018-03-17T00:36:00.609Z,-2.20
2018-03-17T00:38:28.746Z,-2.20
2018-03-17T00:40:56.893Z,-2.40
2018-03-17T00:43:25.049Z,-2.40
2018-03-17T00:45:53.205Z,-2.40
2018-03-17T00:48:21.385Z,-2.30
2018-03-17T00:50:50.316Z,-2.20
2018-03-17T00:53:18.442Z,-2.30
2018-03-17T00:55:46.604Z,-2.20
2018-03-17T00:58:14.742Z,-2.20
2018-03-17T01:00:42.890Z,-2.50
2018-03-17T01:03:11.017Z,-2.30
2018-03-17T01:05:39.174Z,-2.50
2018-03-17T01:08:07.299Z,-2.70
2018-03-17T01:10:35.465Z,-2.40
2018-03-17T01:13:04.362Z,-2.60
2018-03-17T01:15:32.494Z,-2.70
2018-03-17T01:18:00.646Z,-2.60
2018-03-17T01:20:28.785Z,-2.70
2018-03-17T01:22:56.965Z,-2.60
2018-03-17T01:25:25.120Z,-2.60
2018-03-17T01:27:54.041Z,-2.60
2018-03-17T01:30:22.175Z,-2.70
2018-03-17T01:32:50.334Z,-2.50
2018-03-17T01:35:18.456Z,-2.90
2018-03-17T01:37:46.617Z,-2.80
2018-03-17T01:40:14.750Z,-2.60
2018-03-17T01:42:42.899Z,-2.60
2018-03-17T01:45:11.028Z,-2.90
2018-03-17T01:47:39.193Z,-2.70
2018-03-17T01:50:07.323Z,-2.70
2018-03-17T01:52:35.477Z,-2.70
2018-03-17T01:55:03.611Z,-2.40
2018-03-17T01:57:31.763Z,-2.50
2018-03-17T01:59:59.897Z,-2.70
2018-03-17T02:02:28.053Z,-2.60
2018-03-17T02:04:56.946Z,-2.70
2018-03-17T02:07:25.093Z,-2.80
2018-03-17T02:09:54.014Z,-2.70
2018-03-17T02:12:22.183Z,-2.70
2018-03-17T02:14:51.074Z,-3.00
2018-03-17T02:17:19.230Z,-2.80
2018-03-17T02:19:48.139Z,-3.00
2018-03-17T02:22:16.356Z,-3.00
2018-03-17T02:24:45.217Z,-3.00
2018-03-17T02:27:13.353Z,-2.80
2018-03-17T02:29:41.501Z,-3.00
2018-03-17T02:32:09.631Z,-2.80
2018-03-17T02:34:37.798Z,-3.00
2018-03-17T02:37:05.937Z,-2.70
2018-03-17T02:39:34.094Z,-3.00
2018-03-17T02:42:02.222Z,-3.00
2018-03-17T02:44:30.373Z,-3.10
2018-03-17T02:46:58.515Z,-3.00
2018-03-17T02:49:26.670Z,-3.00
2018-03-17T02:51:54.798Z,-3.00
2018-03-17T02:54:23.724Z,-3.00
2018-03-17T02:56:51.855Z,-3.10
2018-03-17T02:59:20.011Z,-3.10
2018-03-17T03:01:48.143Z,-3.00
2018-03-17T03:04:16.301Z,-2.80
2018-03-17T03:06:44.434Z,-2.90
2018-03-17T03:09:12.595Z,-2.90
2018-03-17T03:11:40.726Z,-3.00
2018-03-17T03:14:08.888Z,-3.00
2018-03-17T03:16:37.784Z,-2.90
2018-03-17T03:19:05.949Z,-3.20
2018-03-17T03:21:34.840Z,-3.00
2018-03-17T03:24:03.005Z,-3.00
2018-03-17T03:26:31.893Z,-3.00
2018-03-17T03:29:00.032Z,-3.20
2018-03-17T03:31:28.193Z,-3.10
2018-03-17T03:33:56.324Z,-3.00
2018-03-17T03:36:24.475Z,-3.20
2018-03-17T03:38:52.601Z,-3.00
2018-03-17T03:41:20.755Z,-3.30
2018-03-17T03:43:48.884Z,-3.20
2018-03-17T03:46:17.037Z,-3.00
2018-03-17T03:48:45.162Z,-3.00
2018-03-17T03:51:13.308Z,-3.30
2018-03-17T03:53:41.432Z,-3.10
2018-03-17T03:56:09.581Z,-3.00
2018-03-17T03:58:37.709Z,-3.30
2018-03-17T04:01:05.865Z,-3.20
2018-03-17T04:03:33.996Z,-3.20
2018-03-17T04:06:02.913Z,-3.20
2018-03-17T04:08:31.047Z,-3.20
2018-03-17T04:10:59.197Z,-3.20
2018-03-17T04:13:27.325Z,-3.20
2018-03-17T04:15:55.473Z,-3.20
2018-03-17T04:18:23.606Z,-3.10
2018-03-17T04:20:51.762Z,-3.40
2018-03-17T04:23:19.893Z,-3.40
2018-03-17T04:25:48.046Z,-3.50
2018-03-17T04:28:16.177Z,-3.20
2018-03-17T04:30:44.339Z,-3.40
2018-03-17T04:33:12.461Z,-3.40
2018-03-17T04:35:40.610Z,-3.30
2018-03-17T04:38:08.737Z,-3.30
2018-03-17T04:40:36.902Z,-3.30
2018-03-17T04:43:05.028Z,-3.40
2018-03-17T04:45:33.153Z,-3.40
2018-03-17T04:48:01.311Z,-3.50
2018-03-17T04:50:29.761Z,-3.60
2018-03-17T04:52:57.910Z,-3.40
2018-03-17T04:55:26.041Z,-3.50
2018-03-17T04:57:54.196Z,-3.70
2018-03-17T05:00:22.321Z,-3.50
2018-03-17T05:02:50.479Z,-3.70
2018-03-17T05:05:19.370Z,-3.50
2018-03-17T05:07:47.526Z,-3.60
2018-03-17T05:10:15.655Z,-3.50
2018-03-17T05:12:43.810Z,-3.70
2018-03-17T05:15:11.937Z,-3.50
2018-03-17T05:17:40.085Z,-3.60
2018-03-17T05:20:08.218Z,-3.40
2018-03-17T05:22:36.374Z,-3.50
2018-03-17T05:25:05.270Z,-3.50
2018-03-17T05:27:34.192Z,-3.70
2018-03-17T05:30:02.321Z,-3.50
2018-03-17T05:32:30.478Z,-3.60
2018-03-17T05:34:58.613Z,-3.70
2018-03-17T05:37:26.733Z,-3.40
2018-03-17T05:39:54.890Z,-3.50
2018-03-17T05:42:23.012Z,-3.60
2018-03-17T05:44:51.168Z,-3.70
2018-03-17T05:47:19.292Z,-3.60
2018-03-17T05:49:47.450Z,-3.30
2018-03-17T05:52:15.650Z,-3.50
2018-03-17T05:54:43.746Z,-3.30
2018-03-17T05:57:11.906Z,-3.40
2018-03-17T05:59:40.046Z,-3.30
2018-03-17T06:02:08.200Z,-3.20
2018-03-17T06:04:36.325Z,-3.30
2018-03-17T06:07:04.483Z,-3.20
2018-03-17T06:09:32.611Z,-3.30
2018-03-17T06:12:00.797Z,-3.00
2018-03-17T06:14:28.922Z,-3.20
2018-03-17T06:16:57.086Z,-3.20
2018-03-17T06:19:25.226Z,-3.10
2018-03-17T06:21:53.387Z,-3.10
2018-03-17T06:24:21.518Z,-3.10
2018-03-17T06:26:49.684Z,-3.00
2018-03-17T06:29:17.824Z,-3.00
2018-03-17T06:31:45.986Z,-2.90
2018-03-17T06:34:14.126Z,-2.90
2018-03-17T06:36:42.320Z,-2.80
2018-03-17T06:39:10.454Z,-2.60
2018-03-17T06:41:38.724Z,-2.70
2018-03-17T06:44:06.893Z,-2.80
2018-03-17T06:46:35.023Z,-2.70
2018-03-17T06:49:03.937Z,-2.70
2018-03-17T06:51:32.066Z,-2.60
2018-03-17T06:54:00.230Z,-2.20
2018-03-17T06:56:28.361Z,-2.20
2018-03-17T06:58:56.514Z,-2.00
2018-03-17T07:01:24.647Z,-1.70
2018-03-17T07:03:52.802Z,-1.60
2018-03-17T07:06:20.933Z,-1.50
2018-03-17T07:08:49.096Z,-1.40
2018-03-17T07:11:17.235Z,-1.20
2018-03-17T07:13:45.386Z,-1.20
2018-03-17T07:16:13.516Z,-1.20
2018-03-17T07:18:41.670Z,-1.00
2018-03-17T07:21:09.801Z,-1.10
2018-03-17T07:23:37.954Z,-0.90
2018-03-17T07:26:06.084Z,-0.90
2018-03-17T07:28:34.245Z,-0.80
2018-03-17T07:31:02.373Z,-0.60
2018-03-17T07:33:30.533Z,-0.70
2018-03-17T07:35:58.665Z,-0.50
2018-03-17T07:38:26.826Z,-0.50
2018-03-17T07:40:54.994Z,-0.50
2018-03-17T07:43:23.150Z,-0.20
2018-03-17T07:45:51.282Z,-0.30
2018-03-17T07:48:19.437Z,-0.30
2018-03-17T07:50:47.570Z,-0.30
2018-03-17T07:53:15.975Z,-0.20
2018-03-17T07:55:44.102Z,-0.10
2018-03-17T07:58:12.266Z,0.00
2018-03-17T08:00:40.390Z,0.20
2018-03-17T08:03:08.540Z,0.30
2018-03-17T08:05:36.665Z,0.40
2018-03-17T08:08:04.837Z,0.30
2018-03-17T08:10:32.959Z,0.50
2018-03-17T08:13:01.158Z,0.60
2018-03-17T08:15:29.286Z,0.70
2018-03-17T08:17:58.202Z,1.10
2018-03-17T08:20:26.329Z,1.00
2018-03-17T08:22:55.254Z,1.20
2018-03-17T08:25:23.392Z,1.20
2018-03-17T08:27:51.542Z,1.10
2018-03-17T08:30:19.674Z,1.20
2018-03-17T08:32:47.856Z,1.20
2018-03-17T08:35:15.980Z,1.40
2018-03-17T08:37:44.130Z,1.40
2018-03-17T08:40:12.263Z,1.50
2018-03-17T08:42:40.410Z,1.30
2018-03-17T08:45:08.562Z,1.30
2018-03-17T08:47:36.706Z,1.30
2018-03-17T08:50:04.825Z,1.30
2018-03-17T08:52:32.988Z,1.40
2018-03-17T08:55:01.109Z,1.40
2018-03-17T08:57:29.272Z,1.30
2018-03-17T08:59:57.402Z,1.10
2018-03-17T09:02:25.522Z,1.10
2018-03-17T09:04:53.698Z,1.00
2018-03-17T09:07:21.855Z,1.10
2018-03-17T09:09:50.776Z,1.30
2018-03-17T09:12:18.905Z,1.40
2018-03-17T09:14:47.055Z,1.50
2018-03-17T09:17:15.187Z,1.60
2018-03-17T09:19:43.344Z,1.50
2018-03-17T09:22:11.474Z,1.20
2018-03-17T09:24:39.627Z,0.90
2018-03-17T09:27:07.841Z,0.80
2018-03-17T09:29:36.011Z,0.70
2018-03-17T09:32:04.933Z,0.80
2018-03-17T09:34:33.091Z,0.80
2018-03-17T09:37:01.998Z,0.90
2018-03-17T09:39:30.166Z,0.80
2018-03-17T09:41:59.066Z,0.60
2018-03-17T09:44:27.220Z,0.70
2018-03-17T09:46:56.104Z,0.50
2018-03-17T09:49:24.259Z,0.40
2018-03-17T09:51:52.394Z,0.60
2018-03-17T09:54:20.537Z,0.70
2018-03-17T09:56:48.684Z,0.90
2018-03-17T09:59:16.834Z,1.00
2018-03-17T10:01:44.954Z,0.80
2018-03-17T10:04:13.870Z,0.70
2018-03-17T10:06:41.997Z,0.70
2018-03-17T10:09:10.158Z,0.70
2018-03-17T10:11:38.285Z,0.40
2018-03-17T10:14:06.548Z,0.20
2018-03-17T10:16:35.443Z,0.50
2018-03-17T10:19:03.599Z,0.40
2018-03-17T10:21:32.491Z,0.90
2018-03-17T10:24:00.647Z,1.00
2018-03-17T10:26:28.788Z,1.10
2018-03-17T10:28:56.933Z,1.20
2018-03-17T10:31:25.066Z,1.10
2018-03-17T10:33:53.216Z,1.00
2018-03-17T10:36:21.674Z,1.00
2018-03-17T10:38:49.826Z,1.10
2018-03-17T10:41:17.954Z,1.10
2018-03-17T10:43:46.129Z,1.10
2018-03-17T10:46:14.256Z,1.00
2018-03-17T10:48:42.623Z,1.00
2018-03-17T10:51:11.543Z,1.00
2018-03-17T10:53:39.706Z,1.00
2018-03-17T10:56:07.828Z,1.00
2018-03-17T10:58:36.002Z,1.00
2018-03-17T11:01:09.839Z,1.00
2018-03-17T11:03:37.982Z,0.90
2018-03-17T11:06:06.154Z,0.80
2018-03-17T11:08:34.293Z,0.90
2018-03-17T11:11:02.420Z,0.70
2018-03-17T11:13:30.565Z,0.70
2018-03-17T11:15:58.689Z,0.80
2018-03-17T11:18:26.845Z,0.70
2018-03-17T11:20:55.743Z,0.60
2018-03-17T11:23:23.901Z,0.60
2018-03-17T11:25:52.050Z,0.70
2018-03-17T11:28:20.263Z,0.80
2018-03-17T11:30:48.409Z,1.00
2018-03-17T11:33:16.566Z,1.10
2018-03-17T11:35:44.758Z,1.00
2018-03-17T11:38:12.902Z,1.00
2018-03-17T11:40:41.033Z,0.90
2018-03-17T11:43:09.952Z,0.70
2018-03-17T11:45:38.103Z,0.60
2018-03-17T11:48:06.266Z,0.60
2018-03-17T11:50:34.425Z,0.40
2018-03-17T11:53:02.549Z,0.30
2018-03-17T11:55:30.698Z,0.30
2018-03-17T11:57:58.830Z,0.20
2018-03-17T12:00:26.977Z,0.40
2018-03-17T12:02:55.155Z,0.60
2018-03-17T12:05:23.290Z,0.70
2018-03-17T12:07:51.424Z,0.80
2018-03-17T12:10:19.631Z,0.80
2018-03-17T12:12:47.734Z,0.90
2018-03-17T12:15:15.885Z,1.00
2018-03-17T12:17:44.012Z,1.10
2018-03-17T12:20:12.158Z,1.30
2018-03-17T12:22:40.292Z,1.40
2018-03-17T12:25:08.443Z,1.40
2018-03-17T12:27:36.565Z,1.50
2018-03-17T12:30:04.715Z,1.60
2018-03-17T12:32:32.838Z,1.70
2018-03-17T12:35:00.999Z,1.60
2018-03-17T12:37:29.125Z,1.70
2018-03-17T12:39:57.315Z,1.60
2018-03-17T12:42:25.452Z,1.30
2018-03-17T12:44:53.583Z,1.20
2018-03-17T12:47:21.734Z,0.90
2018-03-17T12:49:49.857Z,0.80
2018-03-17T12:52:18.014Z,0.80
2018-03-17T12:54:46.143Z,0.70
2018-03-17T12:57:14.289Z,0.80
2018-03-17T12:59:42.415Z,0.60
2018-03-17T13:02:10.563Z,0.50
2018-03-17T13:04:38.687Z,0.60
2018-03-17T13:07:06.837Z,0.60
2018-03-17T13:09:34.970Z,0.70
2018-03-17T13:12:03.124Z,0.60
2018-03-17T13:14:31.253Z,0.60
2018-03-17T13:16:59.510Z,0.70
2018-03-17T13:19:31.156Z,0.70
2018-03-17T13:21:59.302Z,0.70
2018-03-17T13:24:27.514Z,0.60
2018-03-17T13:27:07.360Z,0.60
2018-03-17T13:29:35.497Z,0.40
2018-03-17T13:32:03.662Z,0.40
2018-03-17T13:34:31.841Z,0.30
2018-03-17T13:37:11.741Z,0.30
2018-03-17T13:39:39.871Z,0.30
2018-03-17T13:42:08.181Z,0.20
2018-03-17T13:44:36.335Z,0.40
2018-03-17T13:47:04.536Z,0.30
2018-03-17T13:49:32.700Z,0.40
2018-03-17T13:52:01.621Z,0.50
2018-03-17T13:54:29.746Z,0.50
2018-03-17T13:56:57.893Z,0.40
2018-03-17T13:59:26.047Z,0.40
2018-03-17T14:01:54.164Z,0.30
2018-03-17T14:04:22.314Z,0.20
2018-03-17T14:06:50.447Z,0.20
2018-03-17T14:09:18.594Z,0.20
2018-03-17T14:11:46.727Z,0.20
2018-03-17T14:14:14.879Z,0.10
2018-03-17T14:16:43.039Z,0.10
2018-03-17T14:19:11.193Z,0.00
2018-03-17T14:21:39.321Z,0.10
2018-03-17T14:24:07.485Z,0.20
2018-03-17T14:26:35.675Z,0.10
2018-03-17T14:29:03.798Z,0.00
2018-03-17T14:31:32.074Z,-0.10
2018-03-17T14:34:00.221Z,0.10
2018-03-17T14:36:28.356Z,0.20
2018-03-17T14:38:56.532Z,0.10
2018-03-17T14:41:24.783Z,0.10
2018-03-17T14:43:52.934Z,0.20
2018-03-17T14:46:21.062Z,0.20
2018-03-17T14:48:49.208Z,0.30
2018-03-17T14:51:17.335Z,0.50
2018-03-17T14:53:45.513Z,0.30
2018-03-17T14:56:13.634Z,0.30
2018-03-17T14:58:41.790Z,0.20
2018-03-17T15:01:09.920Z,0.20
2018-03-17T15:03:38.086Z,0.20
2018-03-17T15:06:06.229Z,0.10
2018-03-17T15:08:34.362Z,-0.10
2018-03-17T15:11:03.306Z,-0.10
2018-03-17T15:13:31.451Z,0.00
2018-03-17T15:15:59.814Z,0.10
2018-03-17T15:18:28.705Z,0.00
2018-03-17T15:20:56.866Z,-0.10
2018-03-17T15:23:25.758Z,0.00
2018-03-17T15:25:53.910Z,0.30
2018-03-17T15:28:22.046Z,0.00
2018-03-17T15:30:50.215Z,0.00
2018-03-17T15:33:18.353Z,-0.20
2018-03-17T15:35:46.514Z,-0.30
2018-03-17T15:38:14.639Z,-0.30
2018-03-17T15:40:42.799Z,-0.30
2018-03-17T15:43:10.932Z,-0.40
2018-03-17T15:45:39.179Z,-0.40
2018-03-17T15:48:07.316Z,-0.30
2018-03-17T15:50:35.576Z,-0.30
2018-03-17T15:53:04.480Z,-0.40
2018-03-17T15:55:32.832Z,-0.40
2018-03-17T15:58:00.961Z,-0.50
2018-03-17T16:00:29.120Z,-0.70
2018-03-17T16:02:57.261Z,-0.60
2018-03-17T16:05:25.422Z,-0.60
2018-03-17T16:07:53.554Z,-0.60
2018-03-17T16:10:21.714Z,-0.80
2018-03-17T16:12:49.853Z,-0.60
2018-03-17T16:15:18.014Z,-0.70
2018-03-17T16:17:46.519Z,-1.00
2018-03-17T16:20:15.454Z,-1.00
2018-03-17T16:22:43.615Z,-0.90
2018-03-17T16:25:11.820Z,-1.00
2018-03-17T16:27:39.995Z,-1.00
2018-03-17T16:30:08.165Z,-1.00
2018-03-17T16:32:36.339Z,-1.00
2018-03-17T16:35:04.512Z,-1.10
2018-03-17T16:37:32.752Z,-1.10
2018-03-17T16:40:00.927Z,-1.20
2018-03-17T16:42:29.122Z,-1.10
2018-03-17T16:44:57.489Z,-1.30
2018-03-17T16:47:25.836Z,-1.40
2018-03-17T16:49:54.756Z,-1.40
2018-03-17T16:52:22.886Z,-1.30
2018-03-17T16:54:51.784Z,-1.30
2018-03-17T16:57:19.942Z,-1.30
2018-03-17T16:59:48.069Z,-1.50
2018-03-17T17:02:16.218Z,-1.50
2018-03-17T17:04:44.357Z,-1.30
2018-03-17T17:07:12.525Z,-1.60
2018-03-17T17:09:40.668Z,-1.40
2018-03-17T17:12:08.827Z,-1.50
2018-03-17T17:14:36.957Z,-1.40
2018-03-17T17:17:05.125Z,-1.70
2018-03-17T17:19:33.258Z,-1.60
2018-03-17T17:22:01.416Z,-1.70
2018-03-17T17:24:29.546Z,-1.70
2018-03-17T17:26:57.710Z,-1.70
2018-03-17T17:29:25.861Z,-1.70
2018-03-17T17:31:54.022Z,-1.80
2018-03-17T17:34:22.150Z,-1.60
2018-03-17T17:36:50.315Z,-1.70
2018-03-17T17:39:18.446Z,-1.80
2018-03-17T17:41:46.788Z,-1.90
2018-03-17T17:44:15.733Z,-1.90
2018-03-17T17:46:43.895Z,-1.80
2018-03-17T17:49:12.095Z,-1.80
2018-03-17T17:51:40.340Z,-1.80
2018-03-17T17:54:08.476Z,-1.90
2018-03-17T17:56:36.692Z,-1.90
2018-03-17T17:59:04.872Z,-1.90
2018-03-17T18:01:33.255Z,-1.90
2018-03-17T18:04:01.399Z,-2.00
2018-03-17T18:06:29.555Z,-1.90
2018-03-17T18:08:57.706Z,-2.10
2018-03-17T18:11:26.635Z,-2.00
2018-03-17T18:13:54.773Z,-2.00
2018-03-17T18:16:23.951Z,-2.00
2018-03-17T18:18:52.108Z,-2.00
2018-03-17T18:21:20.234Z,-1.90
2018-03-17T18:23:49.158Z,-2.00
2018-03-17T18:26:17.316Z,-2.00
2018-03-17T18:28:45.499Z,-2.00
2018-03-17T18:31:13.750Z,-1.90
2018-03-17T18:33:42.666Z,-2.00
2018-03-17T18:36:10.807Z,-2.00
2018-03-17T18:38:39.757Z,-2.10
2018-03-17T18:41:07.886Z,-1.80
2018-03-17T18:43:36.069Z,-2.00
2018-03-17T18:46:04.332Z,-2.10
2018-03-17T18:48:33.637Z,-1.90
2018-03-17T18:51:01.904Z,-2.10
2018-03-17T18:53:30.035Z,-2.00
2018-03-17T18:55:58.190Z,-2.10
2018-03-17T18:58:26.468Z,-2.10
2018-03-17T19:00:54.664Z,-1.90
2018-03-17T19:03:22.789Z,-2.10
2018-03-17T19:05:51.017Z,-2.10
2018-03-17T19:08:19.449Z,-2.20
2018-03-17T19:10:47.672Z,-2.20
2018-03-17T19:13:15.838Z,-2.20
2018-03-17T19:15:44.048Z,-2.20
2018-03-17T19:18:12.146Z,-2.20
2018-03-17T19:20:40.314Z,-1.90
2018-03-17T19:23:08.453Z,-2.00
2018-03-17T19:25:36.657Z,-2.20
2018-03-17T19:28:04.791Z,-2.00
2018-03-17T19:30:32.948Z,-2.20
2018-03-17T19:33:01.130Z,-2.30
2018-03-17T19:35:29.281Z,-2.40
2018-03-17T19:37:57.413Z,-2.40
2018-03-17T19:40:25.615Z,-2.20
2018-03-17T19:42:53.741Z,-2.20
2018-03-17T19:45:21.941Z,-2.10
2018-03-17T19:47:50.073Z,-2.40
2018-03-17T19:50:18.225Z,-2.10
2018-03-17T19:52:46.562Z,-2.10
2018-03-17T19:55:15.453Z,-2.30
2018-03-17T19:57:43.639Z,-2.20
2018-03-17T20:00:11.794Z,-2.30
2018-03-17T20:02:39.941Z,-2.30
2018-03-17T20:05:08.121Z,-2.30
2018-03-17T20:07:37.069Z,-2.30
2018-03-17T20:10:05.202Z,-2.30
2018-03-17T20:12:34.136Z,-2.30
2018-03-17T20:15:02.262Z,-2.20
2018-03-17T20:17:31.220Z,-2.20
2018-03-17T20:19:59.350Z,-2.20
2018-03-17T20:22:27.511Z,-2.40
2018-03-17T20:24:55.665Z,-2.30
2018-03-17T20:27:23.826Z,-2.30
2018-03-17T20:29:51.961Z,-2.40
2018-03-17T20:32:20.119Z,-2.40
2018-03-17T20:34:48.257Z,-2.40
2018-03-17T20:37:16.597Z,-2.20
2018-03-17T20:39:44.686Z,-2.40
2018-03-17T20:42:12.848Z,-2.20
2018-03-17T20:44:40.975Z,-2.20
2018-03-17T20:47:09.897Z,-2.40
2018-03-17T20:49:38.066Z,-2.40
2018-03-17T20:52:06.238Z,-2.50
2018-03-17T20:54:34.494Z,-2.50
2018-03-17T20:57:02.667Z,-2.40
2018-03-17T20:59:30.945Z,-2.50
2018-03-17T21:01:59.874Z,-2.50
2018-03-17T21:04:28.078Z,-2.40
2018-03-17T21:06:56.310Z,-2.60
2018-03-17T21:09:24.438Z,-2.50
2018-03-17T21:11:52.606Z,-2.70
2018-03-17T21:14:20.749Z,-2.60
2018-03-17T21:16:49.645Z,-2.70
2018-03-17T21:19:17.802Z,-2.70
2018-03-17T21:21:45.930Z,-2.70
2018-03-17T21:24:14.102Z,-2.70
2018-03-17T21:26:42.993Z,-2.60
2018-03-17T21:29:11.160Z,-2.70
2018-03-17T21:31:39.290Z,-2.70
2018-03-17T21:34:07.458Z,-2.80
2018-03-17T21:36:35.591Z,-2.90
2018-03-17T21:39:03.786Z,-2.90
2018-03-17T21:41:31.916Z,-2.80
2018-03-17T21:44:00.070Z,-2.90
2018-03-17T21:46:28.218Z,-2.70
2018-03-17T21:48:56.379Z,-3.00
2018-03-17T21:51:24.507Z,-3.00
2018-03-17T21:53:52.667Z,-2.80
2018-03-17T21:56:20.817Z,-2.80
2018-03-17T21:58:48.985Z,-2.80
2018-03-17T22:01:17.147Z,-3.00
2018-03-17T22:03:45.311Z,-3.00
2018-03-17T22:06:13.467Z,-3.10
2018-03-17T22:08:41.617Z,-3.10
2018-03-17T22:11:09.765Z,-3.10
2018-03-17T22:13:37.999Z,-3.20
2018-03-17T22:16:06.119Z,-3.00
2018-03-17T22:18:34.270Z,-3.00
2018-03-17T22:21:02.394Z,-3.20
2018-03-17T22:23:30.564Z,-3.20
2018-03-17T22:25:58.693Z,-3.30
2018-03-17T22:28:26.865Z,-3.10
2018-03-17T22:30:54.993Z,-3.10
2018-03-17T22:33:23.122Z,-3.20
2018-03-17T22:35:51.372Z,-3.20
2018-03-17T22:38:19.506Z,-3.10
2018-03-17T22:40:47.682Z,-3.30
2018-03-17T22:43:15.837Z,-3.00
2018-03-17T22:45:43.999Z,-3.00
2018-03-17T22:48:12.134Z,-3.10
2018-03-17T22:50:40.322Z,-3.20
2018-03-17T22:53:08.460Z,-3.00
2018-03-17T22:55:36.614Z,-3.30
2018-03-17T22:58:04.745Z,-3.20
2018-03-17T23:00:32.929Z,-3.30
2018-03-17T23:03:01.070Z,-3.30
2018-03-17T23:05:29.217Z,-3.40
2018-03-17T23:07:57.396Z,-3.30
2018-03-17T23:10:25.557Z,-3.20
2018-03-17T23:12:53.699Z,-3.20
2018-03-17T23:15:21.900Z,-3.30
2018-03-17T23:17:50.877Z,-3.10
2018-03-17T23:20:19.164Z,-3.30
2018-03-17T23:22:47.314Z,-3.40
2018-03-17T23:25:15.509Z,-3.30
2018-03-17T23:27:43.690Z,-3.10
2018-03-17T23:30:11.877Z,-3.30
2018-03-17T23:32:40.038Z,-3.10
2018-03-17T23:35:08.220Z,-3.30
2018-03-17T23:37:36.349Z,-3.10
2018-03-17T23:40:04.502Z,-3.40
2018-03-17T23:42:33.400Z,-3.40
2018-03-17T23:45:01.549Z,-3.40
2018-03-17T23:47:29.692Z,-3.40
2018-03-17T23:49:57.903Z,-3.20
2018-03-17T23:52:25.997Z,-3.50
2018-03-17T23:54:54.155Z,-3.20
2018-03-17T23:57:23.050Z,-3.40
2018-03-17T23:59:51.214Z,-3.40
